sensor_id;sensor_type;location;lat;lon;timestamp;P1;durP1;ratioP1;P2;durP2;ratioP2
11590;SDS011;5851;54.050;9.974;2023-07-13T00:00:47;2.40;;;2.20;;
11590;SDS011;5851;54.050;9.974;2023-07-13T00:03:15;5.30;;;2.80;;
11590;SDS011;5851;54.050;9.974;2023-07-13T00:05:42;5.88;;;2.83;;
11590;SDS011;5851;54.050;9.974;2023-07-13T00:08:10;5.70;;;2.97;;
11590;SDS011;5851;54.050;9.974;2023-07-13T00:10:41;4.97;;;2.53;;
11590;SDS011;5851;54.050;9.974;2023-07-13T00:13:09;4.67;;;2.80;;
11590;SDS011;5851;54.050;9.974;2023-07-13T00:15:36;5.07;;;2.90;;
11590;SDS011;5851;54.050;9.974;2023-07-13T00:18:03;6.47;;;2.87;;
11590;SDS011;5851;54.050;9.974;2023-07-13T00:20:30;3.60;;;2.53;;
11590;SDS011;5851;54.050;9.974;2023-07-13T00:22:57;3.80;;;2.50;;
11590;SDS011;5851;54.050;9.974;2023-07-13T00:25:25;4.22;;;2.90;;
11590;SDS011;5851;54.050;9.974;2023-07-13T00:27:53;4.43;;;2.63;;
11590;SDS011;5851;54.050;9.974;2023-07-13T00:30:21;4.90;;;2.80;;
11590;SDS011;5851;54.050;9.974;2023-07-13T00:32:48;2.40;;;2.20;;
11590;SDS011;5851;54.050;9.974;2023-07-13T00:35:15;5.03;;;3.00;;
11590;SDS011;5851;54.050;9.974;2023-07-13T00:37:42;2.60;;;2.40;;
11590;SDS011;5851;54.050;9.974;2023-07-13T00:40:10;5.33;;;2.80;;
11590;SDS011;5851;54.050;9.974;2023-07-13T00:42:39;4.27;;;2.77;;
11590;SDS011;5851;54.050;9.974;2023-07-13T00:46:07;4.17;;;2.70;;
11590;SDS011;5851;54.050;9.974;2023-07-13T00:48:17;3.37;;;2.60;;
11590;SDS011;5851;54.050;9.974;2023-07-13T00:50:47;2.90;;;2.70;;
11590;SDS011;5851;54.050;9.974;2023-07-13T00:53:17;5.07;;;3.03;;
11590;SDS011;5851;54.050;9.974;2023-07-13T00:55:44;4.03;;;2.70;;
11590;SDS011;5851;54.050;9.974;2023-07-13T00:58:12;4.57;;;3.07;;
11590;SDS011;5851;54.050;9.974;2023-07-13T01:00:39;3.77;;;2.80;;
11590;SDS011;5851;54.050;9.974;2023-07-13T01:03:06;4.23;;;2.87;;
11590;SDS011;5851;54.050;9.974;2023-07-13T01:05:36;4.13;;;2.87;;
11590;SDS011;5851;54.050;9.974;2023-07-13T01:08:04;5.00;;;2.90;;
11590;SDS011;5851;54.050;9.974;2023-07-13T01:10:31;4.50;;;2.80;;
11590;SDS011;5851;54.050;9.974;2023-07-13T01:13:03;4.40;;;2.83;;
11590;SDS011;5851;54.050;9.974;2023-07-13T01:15:35;4.23;;;2.93;;
11590;SDS011;5851;54.050;9.974;2023-07-13T01:18:03;6.77;;;2.67;;
11590;SDS011;5851;54.050;9.974;2023-07-13T01:20:31;4.17;;;2.37;;
11590;SDS011;5851;54.050;9.974;2023-07-13T01:23:02;4.53;;;2.77;;
11590;SDS011;5851;54.050;9.974;2023-07-13T01:25:30;3.23;;;2.60;;
11590;SDS011;5851;54.050;9.974;2023-07-13T01:27:57;3.53;;;2.90;;
11590;SDS011;5851;54.050;9.974;2023-07-13T01:30:24;3.83;;;2.67;;
11590;SDS011;5851;54.050;9.974;2023-07-13T01:32:51;7.30;;;2.77;;
11590;SDS011;5851;54.050;9.974;2023-07-13T01:35:18;3.87;;;2.80;;
11590;SDS011;5851;54.050;9.974;2023-07-13T01:37:45;4.13;;;2.50;;
11590;SDS011;5851;54.050;9.974;2023-07-13T01:40:13;6.03;;;3.40;;
11590;SDS011;5851;54.050;9.974;2023-07-13T01:42:41;6.00;;;2.83;;
11590;SDS011;5851;54.050;9.974;2023-07-13T01:45:08;4.47;;;2.67;;
11590;SDS011;5851;54.050;9.974;2023-07-13T01:47:35;3.60;;;2.70;;
11590;SDS011;5851;54.050;9.974;2023-07-13T01:50:02;3.47;;;2.87;;
11590;SDS011;5851;54.050;9.974;2023-07-13T01:52:29;4.63;;;2.77;;
11590;SDS011;5851;54.050;9.974;2023-07-13T01:54:56;2.50;;;2.30;;
11590;SDS011;5851;54.050;9.974;2023-07-13T01:57:24;3.63;;;2.67;;
11590;SDS011;5851;54.050;9.974;2023-07-13T01:59:51;4.30;;;2.57;;
11590;SDS011;5851;54.050;9.974;2023-07-13T02:02:18;3.13;;;2.60;;
11590;SDS011;5851;54.050;9.974;2023-07-13T02:04:45;3.10;;;2.30;;
11590;SDS011;5851;54.050;9.974;2023-07-13T02:07:12;4.60;;;2.60;;
11590;SDS011;5851;54.050;9.974;2023-07-13T02:09:40;3.60;;;2.40;;
11590;SDS011;5851;54.050;9.974;2023-07-13T02:12:07;8.30;;;2.47;;
11590;SDS011;5851;54.050;9.974;2023-07-13T02:14:36;3.55;;;2.72;;
11590;SDS011;5851;54.050;9.974;2023-07-13T02:17:03;5.67;;;2.70;;
11590;SDS011;5851;54.050;9.974;2023-07-13T02:19:30;3.83;;;2.50;;
11590;SDS011;5851;54.050;9.974;2023-07-13T02:21:57;3.73;;;2.80;;
11590;SDS011;5851;54.050;9.974;2023-07-13T02:24:24;3.30;;;2.70;;
11590;SDS011;5851;54.050;9.974;2023-07-13T02:26:52;7.03;;;3.17;;
11590;SDS011;5851;54.050;9.974;2023-07-13T02:29:19;4.20;;;2.60;;
11590;SDS011;5851;54.050;9.974;2023-07-13T02:31:47;4.77;;;2.80;;
11590;SDS011;5851;54.050;9.974;2023-07-13T02:34:14;3.10;;;2.90;;
11590;SDS011;5851;54.050;9.974;2023-07-13T02:36:41;5.67;;;3.10;;
11590;SDS011;5851;54.050;9.974;2023-07-13T02:39:08;3.53;;;2.87;;
11590;SDS011;5851;54.050;9.974;2023-07-13T02:41:37;4.93;;;3.07;;
11590;SDS011;5851;54.050;9.974;2023-07-13T02:44:04;3.03;;;2.60;;
11590;SDS011;5851;54.050;9.974;2023-07-13T02:46:33;4.37;;;2.97;;
11590;SDS011;5851;54.050;9.974;2023-07-13T02:49:03;3.53;;;3.00;;
11590;SDS011;5851;54.050;9.974;2023-07-13T02:51:30;4.60;;;3.40;;
11590;SDS011;5851;54.050;9.974;2023-07-13T02:53:59;4.10;;;3.13;;
11590;SDS011;5851;54.050;9.974;2023-07-13T02:56:26;4.17;;;3.00;;
11590;SDS011;5851;54.050;9.974;2023-07-13T02:58:54;4.47;;;3.00;;
11590;SDS011;5851;54.050;9.974;2023-07-13T03:01:21;3.90;;;2.80;;
11590;SDS011;5851;54.050;9.974;2023-07-13T03:03:49;6.60;;;3.27;;
11590;SDS011;5851;54.050;9.974;2023-07-13T03:06:18;4.97;;;3.40;;
11590;SDS011;5851;54.050;9.974;2023-07-13T03:08:46;6.47;;;3.67;;
11590;SDS011;5851;54.050;9.974;2023-07-13T03:11:15;4.23;;;3.60;;
11590;SDS011;5851;54.050;9.974;2023-07-13T03:13:44;5.40;;;3.60;;
11590;SDS011;5851;54.050;9.974;2023-07-13T03:16:11;4.60;;;3.30;;
11590;SDS011;5851;54.050;9.974;2023-07-13T03:18:40;5.67;;;3.47;;
11590;SDS011;5851;54.050;9.974;2023-07-13T03:21:08;5.33;;;4.00;;
11590;SDS011;5851;54.050;9.974;2023-07-13T03:23:37;6.53;;;3.97;;
11590;SDS011;5851;54.050;9.974;2023-07-13T03:26:05;7.07;;;4.10;;
11590;SDS011;5851;54.050;9.974;2023-07-13T03:28:33;5.67;;;3.90;;
11590;SDS011;5851;54.050;9.974;2023-07-13T03:31:01;5.23;;;3.80;;
11590;SDS011;5851;54.050;9.974;2023-07-13T03:33:28;5.70;;;3.70;;
11590;SDS011;5851;54.050;9.974;2023-07-13T03:35:56;7.63;;;3.90;;
11590;SDS011;5851;54.050;9.974;2023-07-13T03:38:23;4.43;;;3.63;;
11590;SDS011;5851;54.050;9.974;2023-07-13T03:40:51;5.80;;;4.07;;
11590;SDS011;5851;54.050;9.974;2023-07-13T03:43:18;4.93;;;3.90;;
11590;SDS011;5851;54.050;9.974;2023-07-13T03:45:45;4.70;;;3.70;;
11590;SDS011;5851;54.050;9.974;2023-07-13T03:48:12;8.03;;;3.90;;
11590;SDS011;5851;54.050;9.974;2023-07-13T03:50:40;5.27;;;4.00;;
11590;SDS011;5851;54.050;9.974;2023-07-13T03:53:06;5.90;;;4.03;;
11590;SDS011;5851;54.050;9.974;2023-07-13T03:55:34;5.07;;;4.07;;
11590;SDS011;5851;54.050;9.974;2023-07-13T03:58:22;4.73;;;3.67;;
11590;SDS011;5851;54.050;9.974;2023-07-13T04:00:51;5.03;;;3.87;;
11590;SDS011;5851;54.050;9.974;2023-07-13T04:03:18;6.10;;;4.30;;
11590;SDS011;5851;54.050;9.974;2023-07-13T04:05:45;8.33;;;4.23;;
11590;SDS011;5851;54.050;9.974;2023-07-13T04:08:12;5.30;;;4.20;;
11590;SDS011;5851;54.050;9.974;2023-07-13T04:10:39;5.13;;;4.27;;
11590;SDS011;5851;54.050;9.974;2023-07-13T04:13:07;5.00;;;4.03;;
11590;SDS011;5851;54.050;9.974;2023-07-13T04:15:34;7.97;;;4.37;;
11590;SDS011;5851;54.050;9.974;2023-07-13T04:18:01;6.40;;;4.17;;
11590;SDS011;5851;54.050;9.974;2023-07-13T04:20:29;7.47;;;3.97;;
11590;SDS011;5851;54.050;9.974;2023-07-13T04:22:56;6.33;;;3.70;;
11590;SDS011;5851;54.050;9.974;2023-07-13T04:25:23;6.43;;;4.17;;
11590;SDS011;5851;54.050;9.974;2023-07-13T04:27:50;5.47;;;4.30;;
11590;SDS011;5851;54.050;9.974;2023-07-13T04:30:19;5.10;;;4.03;;
11590;SDS011;5851;54.050;9.974;2023-07-13T04:32:46;6.23;;;3.93;;
11590;SDS011;5851;54.050;9.974;2023-07-13T04:35:14;7.40;;;4.50;;
11590;SDS011;5851;54.050;9.974;2023-07-13T04:37:40;6.27;;;4.00;;
11590;SDS011;5851;54.050;9.974;2023-07-13T04:40:08;7.03;;;4.63;;
11590;SDS011;5851;54.050;9.974;2023-07-13T04:42:37;7.33;;;4.13;;
11590;SDS011;5851;54.050;9.974;2023-07-13T04:45:04;6.73;;;4.33;;
11590;SDS011;5851;54.050;9.974;2023-07-13T04:47:33;7.90;;;4.00;;
11590;SDS011;5851;54.050;9.974;2023-07-13T04:50:00;6.63;;;3.90;;
11590;SDS011;5851;54.050;9.974;2023-07-13T04:52:27;6.93;;;4.00;;
11590;SDS011;5851;54.050;9.974;2023-07-13T04:54:54;4.60;;;3.80;;
11590;SDS011;5851;54.050;9.974;2023-07-13T04:57:21;6.43;;;3.50;;
11590;SDS011;5851;54.050;9.974;2023-07-13T04:59:48;5.37;;;3.87;;
11590;SDS011;5851;54.050;9.974;2023-07-13T05:02:15;6.20;;;3.93;;
11590;SDS011;5851;54.050;9.974;2023-07-13T05:04:44;8.20;;;4.27;;
11590;SDS011;5851;54.050;9.974;2023-07-13T05:07:12;7.03;;;3.90;;
11590;SDS011;5851;54.050;9.974;2023-07-13T05:09:40;6.03;;;3.93;;
11590;SDS011;5851;54.050;9.974;2023-07-13T05:12:07;6.23;;;4.10;;
11590;SDS011;5851;54.050;9.974;2023-07-13T05:14:35;6.23;;;3.57;;
11590;SDS011;5851;54.050;9.974;2023-07-13T05:17:02;4.77;;;3.47;;
11590;SDS011;5851;54.050;9.974;2023-07-13T05:19:30;6.33;;;3.97;;
11590;SDS011;5851;54.050;9.974;2023-07-13T05:21:58;5.57;;;4.07;;
11590;SDS011;5851;54.050;9.974;2023-07-13T05:24:25;5.17;;;3.83;;
11590;SDS011;5851;54.050;9.974;2023-07-13T05:26:52;8.57;;;3.90;;
11590;SDS011;5851;54.050;9.974;2023-07-13T05:29:19;7.87;;;4.13;;
11590;SDS011;5851;54.050;9.974;2023-07-13T05:31:47;9.40;;;3.90;;
11590;SDS011;5851;54.050;9.974;2023-07-13T05:34:14;5.47;;;3.80;;
11590;SDS011;5851;54.050;9.974;2023-07-13T05:36:40;7.03;;;3.93;;
11590;SDS011;5851;54.050;9.974;2023-07-13T05:39:09;5.57;;;3.77;;
11590;SDS011;5851;54.050;9.974;2023-07-13T05:41:36;6.67;;;3.60;;
11590;SDS011;5851;54.050;9.974;2023-07-13T05:44:03;6.17;;;3.90;;
11590;SDS011;5851;54.050;9.974;2023-07-13T05:46:30;10.90;;;3.70;;
11590;SDS011;5851;54.050;9.974;2023-07-13T05:48:57;5.57;;;3.73;;
11590;SDS011;5851;54.050;9.974;2023-07-13T05:51:24;8.93;;;4.17;;
11590;SDS011;5851;54.050;9.974;2023-07-13T05:53:51;6.90;;;4.00;;
11590;SDS011;5851;54.050;9.974;2023-07-13T05:56:19;6.77;;;3.67;;
11590;SDS011;5851;54.050;9.974;2023-07-13T05:58:47;9.47;;;4.33;;
11590;SDS011;5851;54.050;9.974;2023-07-13T06:01:14;4.83;;;3.47;;
11590;SDS011;5851;54.050;9.974;2023-07-13T06:03:42;7.07;;;3.43;;
11590;SDS011;5851;54.050;9.974;2023-07-13T06:06:09;4.37;;;3.57;;
11590;SDS011;5851;54.050;9.974;2023-07-13T06:08:37;7.40;;;3.90;;
11590;SDS011;5851;54.050;9.974;2023-07-13T06:11:04;8.50;;;3.63;;
11590;SDS011;5851;54.050;9.974;2023-07-13T06:13:34;8.37;;;4.10;;
11590;SDS011;5851;54.050;9.974;2023-07-13T06:16:01;10.00;;;4.43;;
11590;SDS011;5851;54.050;9.974;2023-07-13T06:18:30;8.50;;;3.90;;
11590;SDS011;5851;54.050;9.974;2023-07-13T06:20:57;8.90;;;4.00;;
11590;SDS011;5851;54.050;9.974;2023-07-13T06:23:24;7.70;;;4.27;;
11590;SDS011;5851;54.050;9.974;2023-07-13T06:25:52;8.87;;;3.93;;
11590;SDS011;5851;54.050;9.974;2023-07-13T06:28:18;7.47;;;3.87;;
11590;SDS011;5851;54.050;9.974;2023-07-13T06:30:47;11.50;;;3.90;;
11590;SDS011;5851;54.050;9.974;2023-07-13T06:33:14;10.20;;;3.93;;
11590;SDS011;5851;54.050;9.974;2023-07-13T06:35:41;7.23;;;3.70;;
11590;SDS011;5851;54.050;9.974;2023-07-13T06:38:09;6.67;;;3.80;;
11590;SDS011;5851;54.050;9.974;2023-07-13T06:40:35;10.03;;;4.10;;
11590;SDS011;5851;54.050;9.974;2023-07-13T06:43:02;7.97;;;4.00;;
11590;SDS011;5851;54.050;9.974;2023-07-13T06:45:29;9.37;;;3.60;;
11590;SDS011;5851;54.050;9.974;2023-07-13T06:47:57;9.77;;;3.43;;
11590;SDS011;5851;54.050;9.974;2023-07-13T06:50:24;9.73;;;3.80;;
11590;SDS011;5851;54.050;9.974;2023-07-13T06:52:51;7.93;;;3.87;;
11590;SDS011;5851;54.050;9.974;2023-07-13T06:55:18;9.57;;;3.30;;
11590;SDS011;5851;54.050;9.974;2023-07-13T06:57:45;7.03;;;3.17;;
11590;SDS011;5851;54.050;9.974;2023-07-13T07:00:13;6.70;;;3.50;;
11590;SDS011;5851;54.050;9.974;2023-07-13T07:02:40;8.80;;;3.43;;
11590;SDS011;5851;54.050;9.974;2023-07-13T07:05:08;8.70;;;3.57;;
11590;SDS011;5851;54.050;9.974;2023-07-13T07:07:35;8.70;;;3.23;;
11590;SDS011;5851;54.050;9.974;2023-07-13T07:10:02;7.03;;;2.90;;
11590;SDS011;5851;54.050;9.974;2023-07-13T07:12:30;8.00;;;3.40;;
11590;SDS011;5851;54.050;9.974;2023-07-13T07:14:57;7.63;;;3.20;;
11590;SDS011;5851;54.050;9.974;2023-07-13T07:17:24;7.50;;;2.87;;
11590;SDS011;5851;54.050;9.974;2023-07-13T07:19:51;7.20;;;3.40;;
11590;SDS011;5851;54.050;9.974;2023-07-13T07:22:20;6.70;;;3.10;;
11590;SDS011;5851;54.050;9.974;2023-07-13T07:24:47;7.70;;;3.17;;
11590;SDS011;5851;54.050;9.974;2023-07-13T07:27:15;10.20;;;3.00;;
11590;SDS011;5851;54.050;9.974;2023-07-13T07:29:42;5.23;;;2.53;;
11590;SDS011;5851;54.050;9.974;2023-07-13T07:32:09;8.70;;;2.95;;
11590;SDS011;5851;54.050;9.974;2023-07-13T07:34:36;4.87;;;2.70;;
11590;SDS011;5851;54.050;9.974;2023-07-13T07:37:03;7.65;;;3.10;;
11590;SDS011;5851;54.050;9.974;2023-07-13T07:39:31;9.33;;;3.07;;
11590;SDS011;5851;54.050;9.974;2023-07-13T07:41:58;7.10;;;2.93;;
11590;SDS011;5851;54.050;9.974;2023-07-13T07:44:25;7.55;;;2.88;;
11590;SDS011;5851;54.050;9.974;2023-07-13T07:46:53;5.70;;;3.10;;
11590;SDS011;5851;54.050;9.974;2023-07-13T07:49:20;4.97;;;2.95;;
11590;SDS011;5851;54.050;9.974;2023-07-13T07:51:47;6.47;;;2.77;;
11590;SDS011;5851;54.050;9.974;2023-07-13T07:54:17;7.03;;;2.80;;
11590;SDS011;5851;54.050;9.974;2023-07-13T07:56:45;5.25;;;2.58;;
11590;SDS011;5851;54.050;9.974;2023-07-13T07:59:12;5.13;;;2.35;;
11590;SDS011;5851;54.050;9.974;2023-07-13T08:01:39;7.38;;;2.88;;
11590;SDS011;5851;54.050;9.974;2023-07-13T08:04:06;6.45;;;2.33;;
11590;SDS011;5851;54.050;9.974;2023-07-13T08:06:33;5.95;;;2.50;;
11590;SDS011;5851;54.050;9.974;2023-07-13T08:09:00;7.22;;;2.55;;
11590;SDS011;5851;54.050;9.974;2023-07-13T08:11:29;5.38;;;2.10;;
11590;SDS011;5851;54.050;9.974;2023-07-13T08:13:57;5.90;;;2.30;;
11590;SDS011;5851;54.050;9.974;2023-07-13T08:16:24;4.20;;;2.22;;
11590;SDS011;5851;54.050;9.974;2023-07-13T08:18:52;5.85;;;2.05;;
11590;SDS011;5851;54.050;9.974;2023-07-13T08:21:19;3.90;;;2.40;;
11590;SDS011;5851;54.050;9.974;2023-07-13T08:23:46;4.50;;;2.38;;
11590;SDS011;5851;54.050;9.974;2023-07-13T08:26:13;6.40;;;2.38;;
11590;SDS011;5851;54.050;9.974;2023-07-13T08:28:41;4.82;;;2.10;;
11590;SDS011;5851;54.050;9.974;2023-07-13T08:31:09;7.13;;;2.50;;
11590;SDS011;5851;54.050;9.974;2023-07-13T08:33:36;3.97;;;2.15;;
11590;SDS011;5851;54.050;9.974;2023-07-13T08:36:06;3.42;;;2.17;;
11590;SDS011;5851;54.050;9.974;2023-07-13T08:38:33;4.50;;;2.42;;
11590;SDS011;5851;54.050;9.974;2023-07-13T08:41:00;9.02;;;2.40;;
11590;SDS011;5851;54.050;9.974;2023-07-13T08:43:37;7.90;;;2.88;;
11590;SDS011;5851;54.050;9.974;2023-07-13T08:46:07;4.80;;;2.22;;
11590;SDS011;5851;54.050;9.974;2023-07-13T08:48:40;7.28;;;2.40;;
11590;SDS011;5851;54.050;9.974;2023-07-13T08:51:13;5.38;;;2.22;;
11590;SDS011;5851;54.050;9.974;2023-07-13T08:53:52;6.82;;;2.40;;
11590;SDS011;5851;54.050;9.974;2023-07-13T08:56:24;3.85;;;2.20;;
11590;SDS011;5851;54.050;9.974;2023-07-13T08:58:54;5.20;;;2.13;;
11590;SDS011;5851;54.050;9.974;2023-07-13T09:01:30;6.18;;;2.30;;
11590;SDS011;5851;54.050;9.974;2023-07-13T09:04:09;6.55;;;2.28;;
11590;SDS011;5851;54.050;9.974;2023-07-13T09:06:43;5.15;;;2.10;;
11590;SDS011;5851;54.050;9.974;2023-07-13T09:09:20;4.55;;;2.05;;
11590;SDS011;5851;54.050;9.974;2023-07-13T09:12:00;8.45;;;2.63;;
11590;SDS011;5851;54.050;9.974;2023-07-13T09:14:39;5.68;;;2.50;;
11590;SDS011;5851;54.050;9.974;2023-07-13T09:17:14;7.85;;;2.50;;
11590;SDS011;5851;54.050;9.974;2023-07-13T09:19:45;6.10;;;2.47;;
11590;SDS011;5851;54.050;9.974;2023-07-13T09:22:17;7.28;;;2.50;;
11590;SDS011;5851;54.050;9.974;2023-07-13T09:24:51;7.38;;;2.33;;
11590;SDS011;5851;54.050;9.974;2023-07-13T09:27:24;5.20;;;2.30;;
11590;SDS011;5851;54.050;9.974;2023-07-13T09:29:57;7.10;;;2.38;;
11590;SDS011;5851;54.050;9.974;2023-07-13T09:32:31;7.10;;;2.55;;
11590;SDS011;5851;54.050;9.974;2023-07-13T09:35:00;5.40;;;2.40;;
11590;SDS011;5851;54.050;9.974;2023-07-13T09:37:28;7.40;;;2.50;;
11590;SDS011;5851;54.050;9.974;2023-07-13T09:39:58;4.22;;;2.38;;
11590;SDS011;5851;54.050;9.974;2023-07-13T09:42:29;6.00;;;2.53;;
11590;SDS011;5851;54.050;9.974;2023-07-13T09:44:59;5.13;;;2.40;;
11590;SDS011;5851;54.050;9.974;2023-07-13T09:47:30;4.65;;;2.30;;
11590;SDS011;5851;54.050;9.974;2023-07-13T09:50:05;5.55;;;2.22;;
11590;SDS011;5851;54.050;9.974;2023-07-13T09:52:44;5.32;;;2.33;;
11590;SDS011;5851;54.050;9.974;2023-07-13T09:55:24;5.50;;;2.40;;
11590;SDS011;5851;54.050;9.974;2023-07-13T09:57:53;4.03;;;2.10;;
11590;SDS011;5851;54.050;9.974;2023-07-13T10:00:20;2.13;;;1.90;;
11590;SDS011;5851;54.050;9.974;2023-07-13T10:02:59;3.35;;;2.00;;
11590;SDS011;5851;54.050;9.974;2023-07-13T10:05:28;4.00;;;2.20;;
11590;SDS011;5851;54.050;9.974;2023-07-13T10:08:04;6.32;;;2.50;;
11590;SDS011;5851;54.050;9.974;2023-07-13T10:10:32;5.22;;;2.40;;
11590;SDS011;5851;54.050;9.974;2023-07-13T10:13:01;5.65;;;2.00;;
11590;SDS011;5851;54.050;9.974;2023-07-13T10:15:30;5.22;;;2.20;;
11590;SDS011;5851;54.050;9.974;2023-07-13T10:17:59;4.82;;;2.30;;
11590;SDS011;5851;54.050;9.974;2023-07-13T10:20:26;4.88;;;2.80;;
11590;SDS011;5851;54.050;9.974;2023-07-13T10:22:54;3.63;;;2.10;;
11590;SDS011;5851;54.050;9.974;2023-07-13T10:25:26;6.57;;;2.13;;
11590;SDS011;5851;54.050;9.974;2023-07-13T10:27:58;4.25;;;1.90;;
11590;SDS011;5851;54.050;9.974;2023-07-13T10:30:31;2.65;;;1.88;;
11590;SDS011;5851;54.050;9.974;2023-07-13T10:33:02;3.60;;;1.90;;
11590;SDS011;5851;54.050;9.974;2023-07-13T10:35:36;3.55;;;1.52;;
11590;SDS011;5851;54.050;9.974;2023-07-13T10:38:06;2.35;;;1.40;;
11590;SDS011;5851;54.050;9.974;2023-07-13T10:40:37;2.20;;;1.42;;
11590;SDS011;5851;54.050;9.974;2023-07-13T10:43:09;1.85;;;1.52;;
11590;SDS011;5851;54.050;9.974;2023-07-13T10:45:40;2.25;;;1.40;;
11590;SDS011;5851;54.050;9.974;2023-07-13T10:48:10;1.98;;;1.15;;
11590;SDS011;5851;54.050;9.974;2023-07-13T10:50:40;0.90;;;0.90;;
11590;SDS011;5851;54.050;9.974;2023-07-13T10:53:17;1.02;;;0.95;;
11590;SDS011;5851;54.050;9.974;2023-07-13T10:55:54;1.15;;;1.05;;
11590;SDS011;5851;54.050;9.974;2023-07-13T10:58:28;1.10;;;0.95;;
11590;SDS011;5851;54.050;9.974;2023-07-13T11:01:07;0.93;;;0.93;;
11590;SDS011;5851;54.050;9.974;2023-07-13T11:03:37;0.98;;;0.98;;
11590;SDS011;5851;54.050;9.974;2023-07-13T11:06:18;1.75;;;1.35;;
11590;SDS011;5851;54.050;9.974;2023-07-13T11:09:07;2.35;;;1.20;;
11590;SDS011;5851;54.050;9.974;2023-07-13T11:11:46;2.88;;;1.25;;
11590;SDS011;5851;54.050;9.974;2023-07-13T11:14:26;4.30;;;1.10;;
11590;SDS011;5851;54.050;9.974;2023-07-13T11:17:00;3.33;;;1.02;;
11590;SDS011;5851;54.050;9.974;2023-07-13T11:19:53;2.63;;;1.33;;
11590;SDS011;5851;54.050;9.974;2023-07-13T11:22:24;2.92;;;1.30;;
11590;SDS011;5851;54.050;9.974;2023-07-13T11:24:54;2.10;;;1.13;;
11590;SDS011;5851;54.050;9.974;2023-07-13T11:27:32;2.78;;;1.33;;
11590;SDS011;5851;54.050;9.974;2023-07-13T11:30:19;2.63;;;1.60;;
11590;SDS011;5851;54.050;9.974;2023-07-13T11:32:50;2.58;;;1.73;;
11590;SDS011;5851;54.050;9.974;2023-07-13T11:35:32;3.60;;;1.77;;
11590;SDS011;5851;54.050;9.974;2023-07-13T11:38:03;2.83;;;1.35;;
11590;SDS011;5851;54.050;9.974;2023-07-13T11:40:39;2.63;;;1.30;;
11590;SDS011;5851;54.050;9.974;2023-07-13T11:43:07;3.03;;;1.60;;
11590;SDS011;5851;54.050;9.974;2023-07-13T11:45:38;3.30;;;1.65;;
11590;SDS011;5851;54.050;9.974;2023-07-13T11:48:16;2.15;;;1.48;;
11590;SDS011;5851;54.050;9.974;2023-07-13T11:50:53;5.32;;;1.70;;
11590;SDS011;5851;54.050;9.974;2023-07-13T11:53:24;2.67;;;1.42;;
11590;SDS011;5851;54.050;9.974;2023-07-13T11:55:53;1.98;;;1.20;;
11590;SDS011;5851;54.050;9.974;2023-07-13T11:58:23;4.60;;;1.52;;
11590;SDS011;5851;54.050;9.974;2023-07-13T12:00:53;2.78;;;1.40;;
11590;SDS011;5851;54.050;9.974;2023-07-13T12:03:22;5.70;;;1.67;;
11590;SDS011;5851;54.050;9.974;2023-07-13T12:06:00;2.38;;;1.40;;
11590;SDS011;5851;54.050;9.974;2023-07-13T12:08:28;3.35;;;1.55;;
11590;SDS011;5851;54.050;9.974;2023-07-13T12:10:56;2.58;;;1.42;;
11590;SDS011;5851;54.050;9.974;2023-07-13T12:13:24;2.25;;;1.23;;
11590;SDS011;5851;54.050;9.974;2023-07-13T12:15:53;2.60;;;1.50;;
11590;SDS011;5851;54.050;9.974;2023-07-13T12:18:21;4.07;;;1.52;;
11590;SDS011;5851;54.050;9.974;2023-07-13T12:20:49;2.53;;;1.30;;
11590;SDS011;5851;54.050;9.974;2023-07-13T12:23:22;5.15;;;1.60;;
11590;SDS011;5851;54.050;9.974;2023-07-13T12:25:52;1.50;;;1.20;;
11590;SDS011;5851;54.050;9.974;2023-07-13T12:28:20;2.33;;;1.30;;
11590;SDS011;5851;54.050;9.974;2023-07-13T12:30:49;5.50;;;1.50;;
11590;SDS011;5851;54.050;9.974;2023-07-13T12:33:23;2.28;;;1.55;;
11590;SDS011;5851;54.050;9.974;2023-07-13T12:35:53;2.25;;;1.27;;
11590;SDS011;5851;54.050;9.974;2023-07-13T12:38:23;2.45;;;1.40;;
11590;SDS011;5851;54.050;9.974;2023-07-13T12:40:51;2.50;;;1.50;;
11590;SDS011;5851;54.050;9.974;2023-07-13T12:43:19;3.60;;;1.45;;
11590;SDS011;5851;54.050;9.974;2023-07-13T12:45:57;2.38;;;1.52;;
11590;SDS011;5851;54.050;9.974;2023-07-13T12:48:27;3.08;;;1.45;;
11590;SDS011;5851;54.050;9.974;2023-07-13T12:50:54;5.45;;;1.50;;
11590;SDS011;5851;54.050;9.974;2023-07-13T12:53:27;4.72;;;1.50;;
11590;SDS011;5851;54.050;9.974;2023-07-13T12:55:57;3.45;;;1.38;;
11590;SDS011;5851;54.050;9.974;2023-07-13T12:58:27;4.57;;;1.60;;
11590;SDS011;5851;54.050;9.974;2023-07-13T13:00:56;3.60;;;1.60;;
11590;SDS011;5851;54.050;9.974;2023-07-13T13:03:28;1.75;;;1.35;;
11590;SDS011;5851;54.050;9.974;2023-07-13T13:05:58;3.60;;;1.25;;
11590;SDS011;5851;54.050;9.974;2023-07-13T13:08:29;2.42;;;1.20;;
11590;SDS011;5851;54.050;9.974;2023-07-13T13:10:56;1.27;;;1.15;;
11590;SDS011;5851;54.050;9.974;2023-07-13T13:13:23;2.75;;;1.20;;
11590;SDS011;5851;54.050;9.974;2023-07-13T13:15:50;2.63;;;1.45;;
11590;SDS011;5851;54.050;9.974;2023-07-13T13:18:19;2.40;;;1.40;;
11590;SDS011;5851;54.050;9.974;2023-07-13T13:20:47;2.47;;;1.42;;
11590;SDS011;5851;54.050;9.974;2023-07-13T13:23:14;3.28;;;1.30;;
11590;SDS011;5851;54.050;9.974;2023-07-13T13:25:46;3.33;;;1.42;;
11590;SDS011;5851;54.050;9.974;2023-07-13T13:28:15;4.38;;;2.08;;
11590;SDS011;5851;54.050;9.974;2023-07-13T13:30:44;2.80;;;1.40;;
11590;SDS011;5851;54.050;9.974;2023-07-13T13:33:13;2.38;;;1.60;;
11590;SDS011;5851;54.050;9.974;2023-07-13T13:35:41;2.45;;;1.40;;
11590;SDS011;5851;54.050;9.974;2023-07-13T13:38:09;4.57;;;1.80;;
11590;SDS011;5851;54.050;9.974;2023-07-13T13:40:39;5.40;;;1.75;;
11590;SDS011;5851;54.050;9.974;2023-07-13T13:43:14;3.90;;;1.60;;
11590;SDS011;5851;54.050;9.974;2023-07-13T13:45:42;2.97;;;1.40;;
11590;SDS011;5851;54.050;9.974;2023-07-13T13:48:13;3.13;;;1.50;;
11590;SDS011;5851;54.050;9.974;2023-07-13T13:50:41;2.70;;;1.48;;
11590;SDS011;5851;54.050;9.974;2023-07-13T13:53:10;2.67;;;1.73;;
11590;SDS011;5851;54.050;9.974;2023-07-13T13:55:38;3.35;;;1.17;;
11590;SDS011;5851;54.050;9.974;2023-07-13T13:58:07;4.93;;;1.85;;
11590;SDS011;5851;54.050;9.974;2023-07-13T14:00:35;3.53;;;1.67;;
11590;SDS011;5851;54.050;9.974;2023-07-13T14:03:03;2.97;;;1.52;;
11590;SDS011;5851;54.050;9.974;2023-07-13T14:05:32;4.57;;;1.60;;
11590;SDS011;5851;54.050;9.974;2023-07-13T14:07:59;3.33;;;1.70;;
11590;SDS011;5851;54.050;9.974;2023-07-13T14:10:26;3.30;;;1.63;;
11590;SDS011;5851;54.050;9.974;2023-07-13T14:12:53;3.63;;;1.88;;
11590;SDS011;5851;54.050;9.974;2023-07-13T14:15:23;3.83;;;1.80;;
11590;SDS011;5851;54.050;9.974;2023-07-13T14:17:53;3.35;;;1.60;;
11590;SDS011;5851;54.050;9.974;2023-07-13T14:20:20;2.78;;;1.45;;
11590;SDS011;5851;54.050;9.974;2023-07-13T14:22:49;4.13;;;1.60;;
11590;SDS011;5851;54.050;9.974;2023-07-13T14:25:17;3.05;;;1.50;;
11590;SDS011;5851;54.050;9.974;2023-07-13T14:27:46;1.65;;;1.55;;
11590;SDS011;5851;54.050;9.974;2023-07-13T14:30:16;2.83;;;1.60;;
11590;SDS011;5851;54.050;9.974;2023-07-13T14:32:44;3.20;;;1.45;;
11590;SDS011;5851;54.050;9.974;2023-07-13T14:35:14;3.67;;;1.60;;
11590;SDS011;5851;54.050;9.974;2023-07-13T14:37:42;4.28;;;1.70;;
11590;SDS011;5851;54.050;9.974;2023-07-13T14:40:12;4.30;;;2.00;;
11590;SDS011;5851;54.050;9.974;2023-07-13T14:42:40;4.18;;;1.75;;
11590;SDS011;5851;54.050;9.974;2023-07-13T14:45:12;5.68;;;1.83;;
11590;SDS011;5851;54.050;9.974;2023-07-13T14:47:39;3.67;;;1.80;;
11590;SDS011;5851;54.050;9.974;2023-07-13T14:50:11;4.53;;;1.88;;
11590;SDS011;5851;54.050;9.974;2023-07-13T14:52:42;3.42;;;1.67;;
11590;SDS011;5851;54.050;9.974;2023-07-13T14:55:10;4.75;;;1.50;;
11590;SDS011;5851;54.050;9.974;2023-07-13T14:57:38;5.32;;;1.85;;
11590;SDS011;5851;54.050;9.974;2023-07-13T15:00:05;2.83;;;1.55;;
11590;SDS011;5851;54.050;9.974;2023-07-13T15:02:41;4.80;;;1.80;;
11590;SDS011;5851;54.050;9.974;2023-07-13T15:05:15;4.75;;;1.90;;
11590;SDS011;5851;54.050;9.974;2023-07-13T15:07:44;3.92;;;1.80;;
11590;SDS011;5851;54.050;9.974;2023-07-13T15:10:15;3.92;;;1.90;;
11590;SDS011;5851;54.050;9.974;2023-07-13T15:12:43;3.80;;;1.85;;